createdAt,value
2019-05-18T00:01:43.019Z,28.40
2019-05-18T00:04:10.467Z,23.77
2019-05-18T00:06:37.849Z,23.13
2019-05-18T00:09:06.250Z,28.20
2019-05-18T00:11:33.773Z,23.37
2019-05-18T00:14:01.236Z,30.30
2019-05-18T00:16:28.703Z,27.87
2019-05-18T00:18:56.115Z,27.30
2019-05-18T00:21:23.393Z,26.30
2019-05-18T00:23:50.775Z,24.30
2019-05-18T00:26:18.166Z,23.63
2019-05-18T00:28:45.510Z,28.43
2019-05-18T00:31:12.983Z,25.70
2019-05-18T00:33:40.374Z,27.40
2019-05-18T00:36:07.887Z,33.83
2019-05-18T00:38:35.273Z,30.23
2019-05-18T00:41:02.608Z,32.00
2019-05-18T00:43:30.314Z,28.03
2019-05-18T00:45:57.570Z,34.93
2019-05-18T00:48:24.876Z,29.73
2019-05-18T00:50:52.125Z,34.33
2019-05-18T00:53:19.482Z,36.70
2019-05-18T00:55:46.717Z,31.70
2019-05-18T00:58:14.014Z,36.97
2019-05-18T01:00:41.295Z,44.00
2019-05-18T01:03:08.586Z,45.63
2019-05-18T01:05:38.024Z,37.50
2019-05-18T01:08:05.211Z,40.47
2019-05-18T01:10:32.715Z,47.27
2019-05-18T01:13:00.180Z,52.03
2019-05-18T01:15:27.606Z,51.97
2019-05-18T01:17:57.727Z,54.37
2019-05-18T01:20:24.247Z,40.83
2019-05-18T01:22:52.263Z,32.77
2019-05-18T01:25:19.802Z,40.23
2019-05-18T01:27:47.092Z,41.80
2019-05-18T01:30:16.073Z,45.10
2019-05-18T01:32:43.571Z,56.17
2019-05-18T01:35:11.358Z,49.70
2019-05-18T01:37:39.040Z,50.57
2019-05-18T01:40:06.526Z,48.50
2019-05-18T01:42:33.872Z,54.83
2019-05-18T01:45:15.831Z,69.57
2019-05-18T01:47:30.851Z,55.40
2019-05-18T01:49:58.370Z,62.20
2019-05-18T01:52:25.633Z,83.07
2019-05-18T01:54:52.904Z,69.67
2019-05-18T01:57:20.160Z,79.70
2019-05-18T01:59:47.396Z,65.40
2019-05-18T02:02:14.776Z,67.07
2019-05-18T02:04:42.065Z,62.30
2019-05-18T02:07:09.325Z,57.97
2019-05-18T02:09:36.620Z,61.37
2019-05-18T02:12:04.190Z,87.10
2019-05-18T02:14:31.444Z,71.07
2019-05-18T02:16:58.801Z,93.67
2019-05-18T02:19:26.063Z,90.17
2019-05-18T02:21:53.324Z,71.00
2019-05-18T02:24:20.601Z,67.70
2019-05-18T02:26:48.034Z,69.37
2019-05-18T02:29:15.408Z,75.17
2019-05-18T02:31:42.972Z,88.73
2019-05-18T02:34:10.239Z,75.00
2019-05-18T02:36:37.699Z,58.63
2019-05-18T02:39:06.400Z,72.33
2019-05-18T02:41:33.788Z,70.27
2019-05-18T02:44:01.279Z,81.57
2019-05-18T02:46:28.557Z,79.27
2019-05-18T02:48:55.913Z,68.40
2019-05-18T02:51:23.166Z,75.03
2019-05-18T02:53:50.479Z,83.43
2019-05-18T02:56:17.704Z,74.60
2019-05-18T02:58:44.997Z,81.90
2019-05-18T03:01:12.265Z,84.87
2019-05-18T03:03:39.512Z,75.33
2019-05-18T03:06:06.848Z,75.37
2019-05-18T03:08:34.108Z,70.80
2019-05-18T03:11:01.334Z,82.90
2019-05-18T03:13:28.777Z,86.03
2019-05-18T03:15:56.042Z,105.03
2019-05-18T03:18:23.328Z,99.73
2019-05-18T03:20:50.614Z,83.83
2019-05-18T03:23:17.911Z,82.63
2019-05-18T03:25:45.177Z,94.80
2019-05-18T03:28:12.460Z,90.30
2019-05-18T03:30:39.697Z,103.40
2019-05-18T03:33:06.962Z,116.27
2019-05-18T03:35:34.251Z,103.70
2019-05-18T03:38:01.552Z,115.07
2019-05-18T03:40:28.837Z,94.83
2019-05-18T03:42:56.074Z,111.77
2019-05-18T03:45:23.385Z,125.47
2019-05-18T03:47:50.635Z,115.67
2019-05-18T03:50:17.946Z,114.47
2019-05-18T03:52:45.231Z,109.30
2019-05-18T03:55:12.460Z,110.67
2019-05-18T03:57:39.748Z,102.47
2019-05-18T04:00:07.468Z,119.07
2019-05-18T04:02:34.751Z,101.63
2019-05-18T04:05:02.080Z,100.13
2019-05-18T04:07:29.475Z,96.73
2019-05-18T04:09:56.763Z,92.50
2019-05-18T04:12:24.040Z,104.47
2019-05-18T04:14:51.352Z,101.23
2019-05-18T04:17:18.623Z,108.00
2019-05-18T04:19:47.455Z,110.40
2019-05-18T04:22:15.083Z,123.77
2019-05-18T04:24:42.391Z,114.83
2019-05-18T04:27:09.769Z,132.20
2019-05-18T04:29:37.082Z,128.53
2019-05-18T04:32:04.303Z,135.80
2019-05-18T04:34:31.588Z,131.83
2019-05-18T04:36:58.973Z,109.07
2019-05-18T04:39:26.234Z,128.83
2019-05-18T04:41:53.559Z,124.07
2019-05-18T04:44:20.809Z,108.83
2019-05-18T04:46:48.195Z,121.30
2019-05-18T04:49:15.404Z,122.03
2019-05-18T04:51:42.685Z,135.77
2019-05-18T04:54:10.037Z,140.17
2019-05-18T04:56:37.411Z,139.57
2019-05-18T04:59:07.036Z,93.93
2019-05-18T05:01:34.486Z,124.00
2019-05-18T05:04:02.833Z,127.80
2019-05-18T05:06:30.363Z,135.37
2019-05-18T05:08:57.773Z,130.97
2019-05-18T05:11:25.022Z,136.57
2019-05-18T05:13:52.302Z,150.10
2019-05-18T05:16:21.002Z,129.00
2019-05-18T05:18:48.262Z,122.40
2019-05-18T05:21:15.577Z,90.97
2019-05-18T05:23:42.951Z,79.40
2019-05-18T05:26:10.272Z,67.63
2019-05-18T05:28:37.636Z,51.57
2019-05-18T05:31:04.861Z,44.80
2019-05-18T05:33:32.128Z,44.60
2019-05-18T05:35:59.387Z,35.93
2019-05-18T05:38:26.710Z,35.30
2019-05-18T05:40:54.003Z,36.77
2019-05-18T05:43:21.286Z,31.37
2019-05-18T05:45:48.546Z,29.03
2019-05-18T05:48:15.856Z,30.07
2019-05-18T05:50:43.237Z,31.10
2019-05-18T05:53:10.500Z,29.77
2019-05-18T05:55:37.869Z,31.53
2019-05-18T05:58:05.303Z,28.90
2019-05-18T06:00:32.667Z,33.40
2019-05-18T06:03:00.147Z,27.30
2019-05-18T06:05:27.730Z,26.60
2019-05-18T06:07:55.358Z,27.53
2019-05-18T06:10:22.781Z,25.87
2019-05-18T06:12:51.161Z,26.37
2019-05-18T06:15:18.692Z,24.30
2019-05-18T06:17:45.954Z,23.97
2019-05-18T06:20:13.356Z,25.10
2019-05-18T06:22:40.686Z,24.90
2019-05-18T06:25:08.995Z,25.17
2019-05-18T06:27:37.434Z,25.20
2019-05-18T06:30:05.496Z,22.50
2019-05-18T06:32:33.066Z,23.67
2019-05-18T06:35:00.412Z,22.00
2019-05-18T06:37:30.335Z,21.77
2019-05-18T06:39:57.707Z,21.53
2019-05-18T06:42:25.040Z,21.67
2019-05-18T06:44:52.344Z,21.03
2019-05-18T06:47:19.570Z,21.97
2019-05-18T06:49:51.041Z,21.73
2019-05-18T06:52:19.070Z,22.97
2019-05-18T06:54:46.449Z,21.47
2019-05-18T06:57:14.882Z,22.37
2019-05-18T06:59:42.180Z,20.80
2019-05-18T07:02:09.503Z,21.27
2019-05-18T07:04:36.807Z,22.37
2019-05-18T07:07:04.212Z,20.73
2019-05-18T07:09:31.496Z,21.97
2019-05-18T07:11:58.818Z,18.43
2019-05-18T07:14:26.334Z,19.13
2019-05-18T07:16:53.604Z,18.33
2019-05-18T07:19:20.980Z,19.47
2019-05-18T07:21:48.308Z,23.20
2019-05-18T07:24:15.619Z,19.70
2019-05-18T07:26:43.120Z,18.63
2019-05-18T07:29:10.506Z,22.07
2019-05-18T07:31:37.847Z,18.60
2019-05-18T07:34:05.312Z,18.83
2019-05-18T07:36:32.732Z,18.47
2019-05-18T07:39:00.074Z,18.53
2019-05-18T07:41:27.430Z,17.67
2019-05-18T07:43:54.774Z,17.63
2019-05-18T07:46:22.095Z,17.87
2019-05-18T07:48:49.575Z,16.70
2019-05-18T07:51:17.024Z,15.33
2019-05-18T07:53:44.402Z,17.13
2019-05-18T07:56:11.690Z,14.03
2019-05-18T07:58:38.951Z,15.33
2019-05-18T08:01:06.330Z,15.93
2019-05-18T08:03:33.593Z,14.20
2019-05-18T08:06:00.850Z,14.57
2019-05-18T08:08:28.150Z,13.80
2019-05-18T08:10:55.386Z,12.63
2019-05-18T08:13:22.693Z,13.47
2019-05-18T08:15:49.923Z,14.33
2019-05-18T08:18:17.211Z,13.23
2019-05-18T08:20:44.470Z,12.67
2019-05-18T08:23:11.843Z,12.13
2019-05-18T08:25:39.086Z,12.20
2019-05-18T08:28:06.488Z,12.23
2019-05-18T08:30:33.814Z,11.57
2019-05-18T08:33:01.116Z,11.77
2019-05-18T08:35:28.436Z,13.73
2019-05-18T08:37:55.732Z,11.10
2019-05-18T08:40:22.997Z,11.60
2019-05-18T08:42:50.397Z,10.10
2019-05-18T08:45:17.608Z,9.20
2019-05-18T08:47:44.898Z,10.83
2019-05-18T08:50:12.428Z,9.43
2019-05-18T08:52:39.798Z,8.30
2019-05-18T08:55:07.125Z,8.90
2019-05-18T08:57:35.404Z,8.67
2019-05-18T09:00:02.718Z,7.37
2019-05-18T09:02:31.203Z,7.23
2019-05-18T09:04:58.432Z,7.87
2019-05-18T09:07:25.686Z,6.07
2019-05-18T09:09:52.938Z,5.53
2019-05-18T09:12:20.247Z,5.83
2019-05-18T09:14:47.623Z,4.57
2019-05-18T09:17:14.948Z,4.77
2019-05-18T09:19:42.186Z,6.03
2019-05-18T09:22:22.447Z,5.17
2019-05-18T09:24:38.787Z,5.07
2019-05-18T09:27:06.109Z,5.63
2019-05-18T09:29:33.468Z,6.27
2019-05-18T09:32:00.789Z,4.83
2019-05-18T09:34:28.066Z,5.03
2019-05-18T09:36:55.361Z,4.30
2019-05-18T09:39:22.695Z,5.63
2019-05-18T09:41:50.102Z,4.67
2019-05-18T09:44:17.361Z,5.13
2019-05-18T09:46:44.652Z,4.30
2019-05-18T09:49:13.056Z,4.30
2019-05-18T09:51:40.333Z,4.60
2019-05-18T09:54:07.702Z,4.07
2019-05-18T09:56:34.997Z,4.40
2019-05-18T09:59:02.402Z,4.07
2019-05-18T10:01:29.692Z,5.40
2019-05-18T10:03:56.963Z,4.77
2019-05-18T10:06:24.174Z,3.70
2019-05-18T10:08:51.450Z,5.23
2019-05-18T10:11:18.742Z,5.00
2019-05-18T10:13:46.125Z,3.77
2019-05-18T10:16:13.485Z,3.93
2019-05-18T10:18:40.839Z,3.50
2019-05-18T10:21:08.049Z,4.00
2019-05-18T10:23:35.290Z,4.43
2019-05-18T10:26:03.614Z,3.97
2019-05-18T10:28:31.142Z,3.33
2019-05-18T10:30:58.416Z,3.70
2019-05-18T10:33:25.725Z,5.83
2019-05-18T10:35:53.000Z,3.93
2019-05-18T10:38:20.524Z,5.00
2019-05-18T10:40:48.007Z,3.77
2019-05-18T10:43:15.533Z,4.33
2019-05-18T10:45:45.100Z,4.03
2019-05-18T10:48:12.258Z,3.90
2019-05-18T10:50:39.587Z,3.90
2019-05-18T10:53:08.208Z,5.33
2019-05-18T10:55:35.675Z,6.50
2019-05-18T10:58:04.113Z,5.20
2019-05-18T11:00:31.795Z,4.17
2019-05-18T11:02:59.186Z,3.63
2019-05-18T11:05:26.409Z,4.40
2019-05-18T11:07:53.659Z,3.40
2019-05-18T11:10:21.219Z,3.93
2019-05-18T11:12:48.463Z,3.93
2019-05-18T11:15:15.834Z,3.57
2019-05-18T11:17:43.140Z,3.43
2019-05-18T11:20:11.012Z,3.93
2019-05-18T11:22:38.264Z,3.40
2019-05-18T11:25:05.879Z,3.80
2019-05-18T11:27:33.623Z,3.73
2019-05-18T11:30:00.964Z,3.60
2019-05-18T11:32:28.407Z,3.10
2019-05-18T11:34:55.768Z,3.83
2019-05-18T11:37:23.031Z,3.93
2019-05-18T11:39:50.300Z,3.17
2019-05-18T11:42:17.565Z,3.63
2019-05-18T11:44:44.801Z,3.30
2019-05-18T11:47:14.739Z,4.60
2019-05-18T11:49:42.057Z,4.10
2019-05-18T11:52:09.330Z,3.33
2019-05-18T11:54:36.590Z,3.20
2019-05-18T11:57:03.889Z,3.00
2019-05-18T11:59:32.135Z,4.17
2019-05-18T12:01:59.433Z,2.90
2019-05-18T12:04:26.774Z,3.20
2019-05-18T12:06:54.228Z,3.47
2019-05-18T12:09:21.513Z,3.43
2019-05-18T12:11:48.836Z,4.33
2019-05-18T12:14:16.145Z,4.03
2019-05-18T12:16:43.395Z,4.00
2019-05-18T12:19:10.960Z,3.10
2019-05-18T12:21:38.226Z,3.60
2019-05-18T12:24:14.591Z,2.90
2019-05-18T12:26:35.013Z,4.27
2019-05-18T12:29:02.291Z,3.00
2019-05-18T12:31:29.553Z,3.10
2019-05-18T12:33:56.895Z,3.90
2019-05-18T12:36:24.137Z,3.20
2019-05-18T12:38:51.434Z,3.93
2019-05-18T12:41:20.646Z,3.43
2019-05-18T12:43:48.119Z,3.50
2019-05-18T12:46:15.554Z,3.93
2019-05-18T12:48:42.882Z,3.17
2019-05-18T12:51:10.292Z,3.43
2019-05-18T12:53:37.534Z,3.87
2019-05-18T12:56:04.822Z,4.53
2019-05-18T12:58:32.047Z,3.65
2019-05-18T13:00:59.261Z,4.28
2019-05-18T13:03:26.589Z,3.45
2019-05-18T13:05:53.841Z,3.83
2019-05-18T13:08:21.098Z,3.90
2019-05-18T13:10:48.409Z,3.77
2019-05-18T13:13:16.705Z,4.03
2019-05-18T13:15:44.136Z,4.20
2019-05-18T13:18:12.490Z,3.10
2019-05-18T13:20:39.765Z,3.20
2019-05-18T13:23:07.030Z,3.22
2019-05-18T13:25:34.314Z,3.72
2019-05-18T13:28:01.685Z,3.77
2019-05-18T13:30:30.305Z,3.70
2019-05-18T13:32:57.876Z,3.42
2019-05-18T13:35:25.316Z,4.33
2019-05-18T13:37:52.676Z,3.70
2019-05-18T13:40:20.302Z,3.10
2019-05-18T13:42:47.600Z,3.47
2019-05-18T13:45:15.287Z,3.47
2019-05-18T13:47:42.713Z,3.00
2019-05-18T13:50:10.147Z,4.05
2019-05-18T13:52:37.547Z,3.17
2019-05-18T13:55:05.354Z,2.75
2019-05-18T13:57:32.676Z,3.22
2019-05-18T13:59:59.927Z,4.30
2019-05-18T14:02:27.257Z,2.80
2019-05-18T14:04:54.692Z,2.50
2019-05-18T14:07:22.017Z,3.00
2019-05-18T14:09:49.339Z,3.10
2019-05-18T14:12:16.623Z,3.60
2019-05-18T14:14:43.863Z,3.17
2019-05-18T14:17:11.094Z,2.80
2019-05-18T14:19:38.350Z,2.92
2019-05-18T14:22:05.594Z,3.00
2019-05-18T14:24:32.886Z,4.37
2019-05-18T14:27:00.139Z,3.67
2019-05-18T14:29:27.425Z,3.00
2019-05-18T14:31:54.672Z,2.92
2019-05-18T14:34:22.612Z,2.92
2019-05-18T14:36:49.977Z,2.60
2019-05-18T14:39:17.632Z,3.92
2019-05-18T14:41:45.205Z,3.40
2019-05-18T14:44:12.707Z,2.98
2019-05-18T14:46:40.134Z,3.40
2019-05-18T14:49:07.406Z,3.57
2019-05-18T14:51:34.659Z,3.05
2019-05-18T14:54:02.175Z,3.58
2019-05-18T14:56:29.540Z,2.90
2019-05-18T14:58:56.774Z,2.92
2019-05-18T15:01:24.024Z,3.37
2019-05-18T15:03:52.376Z,3.02
2019-05-18T15:06:19.692Z,3.50
2019-05-18T15:08:46.917Z,4.33
2019-05-18T15:11:14.183Z,4.30
2019-05-18T15:13:41.725Z,5.33
2019-05-18T15:16:08.979Z,3.40
2019-05-18T15:18:36.261Z,5.57
2019-05-18T15:21:03.507Z,3.53
2019-05-18T15:23:30.737Z,3.53
2019-05-18T15:25:58.113Z,3.70
2019-05-18T15:28:25.512Z,5.07
2019-05-18T15:30:52.969Z,3.33
2019-05-18T15:33:20.306Z,4.07
2019-05-18T15:35:47.836Z,4.77
2019-05-18T15:38:15.472Z,4.03
2019-05-18T15:40:42.866Z,4.20
2019-05-18T15:43:10.180Z,3.40
2019-05-18T15:45:37.668Z,3.30
2019-05-18T15:48:04.947Z,5.03
2019-05-18T15:50:32.459Z,3.33
2019-05-18T15:53:01.395Z,3.20
2019-05-18T15:55:28.756Z,3.73
2019-05-18T15:57:56.402Z,4.60
2019-05-18T16:00:24.439Z,4.60
2019-05-18T16:02:52.189Z,3.53
2019-05-18T16:05:19.513Z,3.60
2019-05-18T16:07:46.944Z,4.50
2019-05-18T16:10:15.003Z,3.97
2019-05-18T16:12:42.394Z,3.30
2019-05-18T16:15:10.053Z,3.77
2019-05-18T16:17:39.818Z,5.37
2019-05-18T16:20:07.184Z,3.40
2019-05-18T16:22:34.572Z,3.57
2019-05-18T16:25:02.851Z,3.83
2019-05-18T16:27:31.992Z,6.00
2019-05-18T16:30:00.521Z,3.20
2019-05-18T16:32:27.798Z,3.77
2019-05-18T16:34:55.635Z,4.20
2019-05-18T16:37:22.964Z,4.00
2019-05-18T16:39:50.576Z,3.87
2019-05-18T16:42:18.124Z,3.37
2019-05-18T16:44:45.569Z,3.50
2019-05-18T16:47:13.000Z,3.50
2019-05-18T16:49:40.549Z,3.47
2019-05-18T16:52:07.813Z,3.30
2019-05-18T16:54:35.136Z,3.70
2019-05-18T16:57:02.409Z,3.80
2019-05-18T16:59:30.340Z,4.50
2019-05-18T17:01:58.464Z,3.67
2019-05-18T17:04:27.564Z,4.10
2019-05-18T17:06:55.400Z,3.93
2019-05-18T17:09:23.438Z,4.17
2019-05-18T17:11:50.983Z,5.50
2019-05-18T17:14:18.407Z,5.43
2019-05-18T17:16:45.779Z,4.30
2019-05-18T17:19:13.147Z,4.33
2019-05-18T17:21:40.521Z,4.10
2019-05-18T17:24:08.907Z,4.30
2019-05-18T17:26:51.492Z,4.57
2019-05-18T17:29:05.613Z,4.43
2019-05-18T17:31:33.025Z,4.33
2019-05-18T17:34:00.328Z,4.57
2019-05-18T17:36:28.169Z,4.67
2019-05-18T17:38:55.523Z,5.70
2019-05-18T17:41:22.800Z,5.63
2019-05-18T17:43:53.190Z,5.00
2019-05-18T17:46:20.493Z,5.33
2019-05-18T17:48:47.917Z,4.93
2019-05-18T17:51:15.414Z,4.23
2019-05-18T17:53:42.822Z,5.40
2019-05-18T17:56:10.094Z,3.97
2019-05-18T17:58:37.655Z,4.17
2019-05-18T18:01:05.058Z,5.90
2019-05-18T18:03:32.364Z,4.53
2019-05-18T18:05:59.751Z,3.80
2019-05-18T18:08:27.129Z,4.40
2019-05-18T18:10:54.504Z,4.23
2019-05-18T18:13:21.887Z,4.17
2019-05-18T18:15:49.360Z,5.43
2019-05-18T18:18:16.704Z,4.17
2019-05-18T18:20:44.149Z,4.57
2019-05-18T18:23:11.632Z,4.43
2019-05-18T18:25:39.111Z,4.07
2019-05-18T18:28:06.527Z,4.27
2019-05-18T18:30:33.921Z,4.33
2019-05-18T18:33:01.348Z,5.60
2019-05-18T18:35:28.650Z,4.30
2019-05-18T18:37:56.110Z,6.03
2019-05-18T18:40:23.414Z,8.57
2019-05-18T18:42:50.866Z,5.40
2019-05-18T18:45:18.344Z,5.30
2019-05-18T18:47:45.766Z,5.33
2019-05-18T18:50:13.192Z,5.30
2019-05-18T18:52:40.732Z,5.07
2019-05-18T18:55:08.981Z,4.50
2019-05-18T18:57:41.205Z,5.37
2019-05-18T19:00:06.784Z,4.97
2019-05-18T19:02:34.431Z,5.97
2019-05-18T19:07:23.897Z,5.50
2019-05-18T19:09:51.293Z,5.33
2019-05-18T19:12:18.622Z,7.13
2019-05-18T19:14:45.950Z,6.40
2019-05-18T19:17:13.494Z,6.43
2019-05-18T19:19:40.824Z,6.47
2019-05-18T19:22:08.199Z,8.63
2019-05-18T19:24:35.613Z,6.90
2019-05-18T19:27:03.124Z,8.27
2019-05-18T19:29:30.501Z,9.77
2019-05-18T19:31:57.803Z,9.30
2019-05-18T19:34:25.062Z,6.53
2019-05-18T19:36:52.494Z,6.90
2019-05-18T19:39:19.768Z,6.80
2019-05-18T19:41:47.237Z,8.80
2019-05-18T19:44:14.556Z,7.67
2019-05-18T19:46:41.892Z,7.53
2019-05-18T19:49:09.265Z,6.60
2019-05-18T19:51:36.815Z,6.90
2019-05-18T19:54:04.182Z,9.80
2019-05-18T19:56:39.225Z,6.83
2019-05-18T19:59:00.736Z,7.80
2019-05-18T20:01:28.078Z,7.13
2019-05-18T20:03:55.650Z,7.30
2019-05-18T20:06:23.092Z,9.70
2019-05-18T20:08:50.367Z,8.43
2019-05-18T20:11:17.658Z,8.30
2019-05-18T20:13:45.036Z,7.63
2019-05-18T20:16:12.282Z,8.03
2019-05-18T20:18:39.852Z,8.00
2019-05-18T20:21:07.226Z,7.87
2019-05-18T20:23:34.602Z,9.83
2019-05-18T20:26:01.938Z,9.60
2019-05-18T20:28:29.322Z,8.67
2019-05-18T20:30:56.716Z,9.27
2019-05-18T20:33:24.008Z,9.17
2019-05-18T20:35:51.308Z,8.43
2019-05-18T20:38:18.821Z,12.03
2019-05-18T20:40:46.163Z,10.33
2019-05-18T20:43:13.484Z,7.53
2019-05-18T20:45:40.805Z,10.43
2019-05-18T20:48:08.092Z,9.40
2019-05-18T20:50:35.366Z,9.93
2019-05-18T20:53:02.752Z,9.43
2019-05-18T20:55:30.180Z,11.80
2019-05-18T20:57:57.689Z,9.77
2019-05-18T21:00:25.052Z,9.93
2019-05-18T21:02:52.541Z,11.03
2019-05-18T21:05:19.935Z,9.30
2019-05-18T21:07:47.259Z,11.47
2019-05-18T21:10:14.765Z,10.87
2019-05-18T21:12:42.086Z,10.40
2019-05-18T21:15:10.055Z,10.73
2019-05-18T21:17:38.568Z,10.40
2019-05-18T21:20:07.078Z,9.60
2019-05-18T21:22:34.372Z,10.00
2019-05-18T21:25:01.827Z,10.00
2019-05-18T21:27:29.322Z,11.77
2019-05-18T21:29:56.596Z,9.17
2019-05-18T21:32:23.888Z,10.27
2019-05-18T21:34:51.174Z,10.53
2019-05-18T21:37:18.428Z,11.40
2019-05-18T21:39:46.700Z,11.53
2019-05-18T21:42:14.945Z,11.73
2019-05-18T21:44:42.225Z,10.50
2019-05-18T21:47:09.516Z,14.03
2019-05-18T21:49:36.802Z,11.93
2019-05-18T21:52:04.072Z,12.67
2019-05-18T21:54:31.330Z,10.80
2019-05-18T21:56:58.610Z,11.97
2019-05-18T21:59:25.833Z,11.53
2019-05-18T22:01:53.228Z,12.27
2019-05-18T22:04:20.491Z,12.23
2019-05-18T22:06:47.783Z,13.67
2019-05-18T22:09:15.036Z,14.33
2019-05-18T22:11:42.447Z,11.67
2019-05-18T22:14:09.672Z,17.10
2019-05-18T22:16:36.987Z,13.53
2019-05-18T22:19:04.282Z,14.23
2019-05-18T22:21:31.668Z,11.10
2019-05-18T22:23:59.926Z,14.87
2019-05-18T22:26:27.383Z,17.40
2019-05-18T22:28:54.780Z,15.20
2019-05-18T22:31:22.362Z,12.50
2019-05-18T22:33:49.602Z,14.43
2019-05-18T22:36:16.930Z,15.00
2019-05-18T22:38:44.219Z,13.90
2019-05-18T22:41:11.485Z,15.83
2019-05-18T22:43:38.868Z,16.83
2019-05-18T22:46:06.206Z,16.43
2019-05-18T22:48:41.372Z,16.57
2019-05-18T22:51:02.738Z,17.57
2019-05-18T22:53:30.090Z,16.47
2019-05-18T22:55:57.347Z,20.67
2019-05-18T22:58:25.584Z,21.70
2019-05-18T23:00:53.890Z,19.67
2019-05-18T23:03:22.365Z,18.47
2019-05-18T23:05:49.899Z,18.47
2019-05-18T23:08:17.316Z,17.13
2019-05-18T23:10:44.607Z,17.83
2019-05-18T23:13:12.083Z,16.23
2019-05-18T23:15:39.412Z,16.73
2019-05-18T23:18:06.704Z,18.07
2019-05-18T23:20:34.102Z,20.80
2019-05-18T23:23:01.718Z,15.67
2019-05-18T23:25:29.087Z,14.80
2019-05-18T23:27:56.484Z,19.30
2019-05-18T23:30:23.898Z,17.60
2019-05-18T23:32:51.279Z,18.10
2019-05-18T23:35:18.533Z,17.23
2019-05-18T23:37:46.063Z,18.00
2019-05-18T23:40:14.334Z,18.97
2019-05-18T23:42:41.751Z,20.37
2019-05-18T23:45:09.253Z,21.03
2019-05-18T23:47:36.545Z,19.90
2019-05-18T23:50:04.601Z,17.27
2019-05-18T23:52:31.955Z,18.13
2019-05-18T23:54:59.231Z,18.73
2019-05-18T23:57:26.712Z,21.73
2019-05-18T23:59:54.022Z,18.43
